createdAt,value
2022-09-15T00:01:46.881Z,14.10
2022-09-15T00:07:41.597Z,14.40
2022-09-15T00:13:36.077Z,14.30
2022-09-15T00:19:29.659Z,14.30
2022-09-15T00:25:24.237Z,14.30
2022-09-15T00:31:18.826Z,14.20
2022-09-15T00:37:12.087Z,14.10
2022-09-15T00:43:10.625Z,14.30
2022-09-15T00:49:07.662Z,14.60
2022-09-15T00:55:07.740Z,14.70
2022-09-15T01:01:04.649Z,14.70
2022-09-15T01:07:02.769Z,14.30
2022-09-15T01:12:59.574Z,14.30
2022-09-15T01:19:04.584Z,14.30
2022-09-15T01:25:09.030Z,14.40
2022-09-15T01:31:10.096Z,14.30
2022-09-15T01:37:07.366Z,14.40
2022-09-15T01:43:02.576Z,14.40
2022-09-15T01:48:59.533Z,14.50
2022-09-15T01:54:56.748Z,14.40
2022-09-15T02:00:55.059Z,14.40
2022-09-15T02:06:58.246Z,14.50
2022-09-15T02:12:58.125Z,14.20
2022-09-15T02:19:16.854Z,14.30
2022-09-15T02:25:14.925Z,14.20
2022-09-15T02:31:11.822Z,14.20
2022-09-15T02:37:06.073Z,14.20
2022-09-15T02:43:03.220Z,14.10
2022-09-15T02:48:57.287Z,14.10
2022-09-15T02:54:51.074Z,14.10
2022-09-15T03:00:45.395Z,14.00
2022-09-15T03:06:38.645Z,13.90
2022-09-15T03:12:31.900Z,13.90
2022-09-15T03:18:26.569Z,14.00
2022-09-15T03:24:20.337Z,14.00
2022-09-15T03:30:14.462Z,14.00
2022-09-15T03:36:09.651Z,14.10
2022-09-15T03:42:02.886Z,14.10
2022-09-15T03:47:56.151Z,14.10
2022-09-15T03:53:51.075Z,14.00
2022-09-15T03:59:44.570Z,14.10
2022-09-15T04:05:39.075Z,14.10
2022-09-15T04:11:33.367Z,13.90
2022-09-15T04:17:26.632Z,13.80
2022-09-15T04:23:20.501Z,13.90
2022-09-15T04:29:17.919Z,13.80
2022-09-15T04:35:11.995Z,13.90
2022-09-15T04:41:05.706Z,13.90
2022-09-15T04:47:00.411Z,13.90
2022-09-15T04:52:53.560Z,13.80
2022-09-15T04:58:48.620Z,13.80
2022-09-15T05:04:43.357Z,13.80
2022-09-15T05:10:38.490Z,13.70
2022-09-15T05:16:32.744Z,13.70
2022-09-15T05:22:27.657Z,13.70
2022-09-15T05:28:20.859Z,13.70
2022-09-15T05:34:14.125Z,13.70
2022-09-15T05:40:10.426Z,13.60
2022-09-15T05:46:04.553Z,13.70
2022-09-15T05:51:57.918Z,13.70
2022-09-15T05:57:52.477Z,13.70
2022-09-15T06:03:45.965Z,13.70
2022-09-15T06:09:39.717Z,13.70
2022-09-15T06:15:34.381Z,13.90
2022-09-15T06:21:30.281Z,13.80
2022-09-15T06:27:23.538Z,13.90
2022-09-15T06:33:18.454Z,14.00
2022-09-15T06:39:11.807Z,14.00
2022-09-15T06:45:05.494Z,14.10
2022-09-15T06:51:01.724Z,14.10
2022-09-15T06:56:55.056Z,14.20
2022-09-15T07:02:50.619Z,14.20
2022-09-15T07:08:45.723Z,14.20
2022-09-15T07:14:38.955Z,14.10
2022-09-15T07:20:32.242Z,13.80
2022-09-15T07:26:28.483Z,13.90
2022-09-15T07:32:21.761Z,14.10
2022-09-15T07:38:15.051Z,14.30
2022-09-15T07:44:12.193Z,14.60
2022-09-15T07:50:08.061Z,14.60
2022-09-15T07:56:01.343Z,14.60
2022-09-15T08:01:56.260Z,14.70
2022-09-15T08:07:49.811Z,14.80
2022-09-15T08:13:43.091Z,14.80
2022-09-15T08:19:37.752Z,15.00
2022-09-15T08:25:31.995Z,14.90
2022-09-15T08:31:26.832Z,15.10
2022-09-15T08:37:21.092Z,15.30
2022-09-15T08:43:19.016Z,15.40
2022-09-15T08:49:30.765Z,15.50
2022-09-15T08:55:38.796Z,15.70
2022-09-15T09:01:42.718Z,15.80
2022-09-15T09:07:53.294Z,15.90
2022-09-15T09:13:54.498Z,16.00
2022-09-15T09:20:15.635Z,16.30
2022-09-15T09:26:13.823Z,16.20
2022-09-15T09:32:19.791Z,16.20
2022-09-15T09:38:21.277Z,16.10
2022-09-15T09:44:16.248Z,16.10
2022-09-15T09:50:36.800Z,16.00
2022-09-15T09:56:30.255Z,16.00
2022-09-15T10:02:25.535Z,15.50
2022-09-15T10:08:21.999Z,15.40
2022-09-15T10:14:21.314Z,14.90
2022-09-15T10:20:36.558Z,14.80
2022-09-15T10:26:36.495Z,14.90
2022-09-15T10:32:32.006Z,15.10
2022-09-15T10:38:34.102Z,16.20
2022-09-15T10:44:41.442Z,17.50
2022-09-15T10:50:47.661Z,17.70
2022-09-15T10:56:44.317Z,18.00
2022-09-15T11:03:11.814Z,17.90
2022-09-15T11:09:20.082Z,18.40
2022-09-15T11:15:27.464Z,19.50
2022-09-15T11:21:31.316Z,19.80
2022-09-15T11:27:28.737Z,20.20
2022-09-15T11:33:27.546Z,20.60
2022-09-15T11:39:26.177Z,20.30
2022-09-15T11:45:22.925Z,20.80
2022-09-15T11:51:19.989Z,17.90
2022-09-15T11:57:21.729Z,16.90
2022-09-15T12:03:21.598Z,16.60
2022-09-15T12:09:17.080Z,16.80
2022-09-15T12:15:17.908Z,18.30
2022-09-15T12:21:18.826Z,19.50
2022-09-15T12:27:17.224Z,20.90
2022-09-15T12:33:54.924Z,20.90
2022-09-15T12:39:48.983Z,20.70
2022-09-15T12:45:43.945Z,20.00
2022-09-15T12:51:38.936Z,19.20
2022-09-15T12:57:35.709Z,19.60
2022-09-15T13:03:50.558Z,19.80
2022-09-15T13:09:56.835Z,19.90
2022-09-15T13:15:52.946Z,20.10
2022-09-15T13:21:52.218Z,19.50
2022-09-15T13:27:50.092Z,19.70
2022-09-15T13:40:44.938Z,18.50
2022-09-15T13:46:51.172Z,18.20
2022-09-15T13:52:56.015Z,17.20
2022-09-15T13:59:01.747Z,16.90
2022-09-15T14:05:01.771Z,16.10
2022-09-15T14:10:57.794Z,15.70
2022-09-15T14:16:51.600Z,15.90
2022-09-15T14:22:50.764Z,16.10
2022-09-15T14:28:51.369Z,16.40
2022-09-15T14:40:41.709Z,18.00
2022-09-15T14:46:38.900Z,18.10
2022-09-15T14:52:38.954Z,18.50
2022-09-15T14:58:37.667Z,18.60
2022-09-15T15:04:38.248Z,18.50
2022-09-15T15:10:35.860Z,16.60
2022-09-15T15:16:32.994Z,15.70
2022-09-15T15:22:27.124Z,15.60
2022-09-15T15:28:39.640Z,15.50
2022-09-15T15:34:34.341Z,15.10
2022-09-15T15:40:28.434Z,14.80
2022-09-15T15:46:50.512Z,14.70
2022-09-15T15:52:44.981Z,14.80
2022-09-15T15:58:38.486Z,14.80
2022-09-15T16:04:33.110Z,14.70
2022-09-15T16:10:31.192Z,14.70
2022-09-15T16:16:26.455Z,14.90
2022-09-15T16:22:21.789Z,15.20
2022-09-15T16:28:15.630Z,15.10
2022-09-15T16:34:12.172Z,15.30
2022-09-15T16:40:07.980Z,15.40
2022-09-15T16:46:01.655Z,15.40
2022-09-15T16:51:54.897Z,15.30
2022-09-15T16:57:49.463Z,15.10
2022-09-15T17:03:43.696Z,15.30
2022-09-15T17:09:37.273Z,15.20
2022-09-15T17:15:35.560Z,15.30
2022-09-15T17:21:28.550Z,15.20
2022-09-15T17:27:21.787Z,15.00
2022-09-15T17:33:17.639Z,15.10
2022-09-15T17:39:11.194Z,15.20
2022-09-15T17:45:11.181Z,15.10
2022-09-15T17:51:06.722Z,15.00
2022-09-15T17:56:59.624Z,15.00
2022-09-15T18:02:54.701Z,15.10
2022-09-15T18:08:49.349Z,15.00
2022-09-15T18:14:42.219Z,14.90
2022-09-15T18:20:36.311Z,14.70
2022-09-15T18:26:30.992Z,14.50
2022-09-15T18:32:24.314Z,14.50
2022-09-15T18:38:18.426Z,14.60
2022-09-15T18:44:13.048Z,14.60
2022-09-15T18:50:08.137Z,14.50
2022-09-15T18:56:01.358Z,14.50
2022-09-15T19:01:56.120Z,14.20
2022-09-15T19:07:49.866Z,14.20
2022-09-15T19:13:43.115Z,14.20
2022-09-15T19:19:37.846Z,14.20
2022-09-15T19:25:31.093Z,14.20
2022-09-15T19:31:25.509Z,14.20
2022-09-15T19:37:22.391Z,14.00
2022-09-15T19:43:15.677Z,13.80
2022-09-15T19:49:08.985Z,13.70
2022-09-15T19:55:04.278Z,13.60
2022-09-15T20:00:58.686Z,13.40
2022-09-15T20:06:52.155Z,13.40
2022-09-15T20:12:46.659Z,13.30
2022-09-15T20:18:41.786Z,13.20
2022-09-15T20:24:34.658Z,13.20
2022-09-15T20:30:29.408Z,13.00
2022-09-15T20:36:24.580Z,12.80
2022-09-15T20:42:17.803Z,12.80
2022-09-15T20:48:12.365Z,12.60
2022-09-15T20:54:06.203Z,12.70
2022-09-15T20:59:59.554Z,12.50
2022-09-15T21:06:00.042Z,12.40
2022-09-15T21:11:53.718Z,12.40
2022-09-15T21:17:47.082Z,12.30
2022-09-15T21:23:43.187Z,12.10
2022-09-15T21:29:36.450Z,12.10
2022-09-15T21:35:29.686Z,12.20
2022-09-15T21:41:26.398Z,12.00
2022-09-15T21:47:19.934Z,12.10
2022-09-15T21:53:13.094Z,12.20
2022-09-15T21:59:09.308Z,12.20
2022-09-15T22:05:02.723Z,12.10
2022-09-15T22:11:01.539Z,12.10
2022-09-15T22:16:56.404Z,12.00
2022-09-15T22:22:49.877Z,12.00
2022-09-15T22:28:44.148Z,11.90
2022-09-15T22:34:38.796Z,12.00
2022-09-15T22:40:32.427Z,11.80
2022-09-15T22:46:25.439Z,11.80
2022-09-15T22:52:20.635Z,11.80
2022-09-15T22:58:13.943Z,11.80
2022-09-15T23:04:06.853Z,11.80
2022-09-15T23:10:01.443Z,11.90
2022-09-15T23:15:54.709Z,11.90
2022-09-15T23:21:47.996Z,11.80
2022-09-15T23:27:42.693Z,11.70
2022-09-15T23:33:36.147Z,11.70
2022-09-15T23:39:29.407Z,11.90
2022-09-15T23:45:23.821Z,11.90
2022-09-15T23:51:17.128Z,11.70
2022-09-15T23:57:12.014Z,11.50
